Time;durP1;ratioP1;P1;durP2;ratioP2;P2;SDS_P1;SDS_P2;PMS_P1;PMS_P2;Temp;Humidity;BMP_temperature;BMP_pressure;BME280_temperature;BME280_humidity;BME280_pressure;Samples;Min_cycle;Max_cycle;Signal;HPM_P1;HPM_P2
2023/01/21 00:01:09;;;;;;;23.52;15.35;;;;;;;-0.70;67.96;101083.47;5048597;28;20049;-60
2023/01/21 00:03:37;;;;;;;23.17;13.70;;;;;;;-0.71;68.24;101087.28;5049609;28;20049;-60
2023/01/21 00:06:08;;;;;;;21.73;14.77;;;;;;;-0.66;67.58;101096.47;5052968;28;20041;-59
2023/01/21 00:08:35;;;;;;;22.40;14.57;;;;;;;-0.63;67.42;101093.31;5045247;28;20056;-60
2023/01/21 00:11:10;;;;;;;20.10;14.38;;;;;;;-0.55;67.65;101091.34;5051017;28;20045;-59
2023/01/21 00:13:37;;;;;;;20.67;14.18;;;;;;;-0.60;67.25;101097.50;5052120;28;20405;-59
2023/01/21 00:16:06;;;;;;;22.17;15.80;;;;;;;-0.55;67.24;101100.38;5050522;28;20064;-60
2023/01/21 00:18:35;;;;;;;26.58;17.25;;;;;;;-0.56;66.94;101109.66;5052513;28;20489;-59
2023/01/21 00:21:03;;;;;;;37.08;21.70;;;;;;;-0.54;67.40;101112.19;5051448;28;20076;-60
2023/01/21 00:23:31;;;;;;;45.63;26.60;;;;;;;-0.70;65.98;101110.84;5050593;28;20060;-59
2023/01/21 00:25:59;;;;;;;40.83;24.15;;;;;;;-0.77;65.67;101121.00;5054962;28;20052;-59
2023/01/21 00:28:28;;;;;;;42.33;26.58;;;;;;;-0.79;65.66;101120.38;5052173;28;20053;-59
2023/01/21 00:30:57;;;;;;;40.00;24.08;;;;;;;-0.84;66.00;101121.03;5034577;28;20483;-60
2023/01/21 00:33:24;;;;;;;38.50;22.53;;;;;;;-0.92;65.66;101130.38;5047306;28;20064;-59
2023/01/21 00:35:59;;;;;;;31.67;20.27;;;;;;;-0.88;66.27;101134.34;5052893;28;20053;-60
2023/01/21 00:38:26;;;;;;;34.13;19.80;;;;;;;-0.83;66.41;101130.94;5054138;28;20060;-59
2023/01/21 00:40:59;;;;;;;29.77;18.67;;;;;;;-0.87;66.08;101148.84;5053535;28;20065;-60
2023/01/21 00:43:26;;;;;;;26.50;16.52;;;;;;;-0.90;65.95;101132.91;5050984;28;20049;-60
2023/01/21 00:45:54;;;;;;;26.70;17.27;;;;;;;-0.89;65.60;101140.84;5052220;28;20053;-60
2023/01/21 00:48:21;;;;;;;23.70;15.32;;;;;;;-0.86;66.08;101145.03;5050892;28;20056;-59
2023/01/21 00:50:50;;;;;;;24.83;14.73;;;;;;;-0.85;66.04;101155.75;5051662;28;20045;-60
2023/01/21 00:53:18;;;;;;;22.13;15.55;;;;;;;-0.94;66.38;101153.53;5052808;28;20053;-60
2023/01/21 00:55:46;;;;;;;21.15;14.52;;;;;;;-0.93;65.66;101166.97;5051085;28;20057;-59
2023/01/21 00:58:13;;;;;;;25.08;15.85;;;;;;;-0.85;65.45;101169.44;5052802;28;20059;-59
2023/01/21 01:00:40;;;;;;;27.10;17.40;;;;;;;-0.83;66.08;101177.44;5047003;28;21081;-60
2023/01/21 01:03:08;;;;;;;26.02;18.02;;;;;;;-0.81;65.91;101183.50;5049209;28;20053;-59
2023/01/21 01:05:36;;;;;;;28.10;18.25;;;;;;;-0.75;66.47;101179.06;5048692;28;20049;-59
2023/01/21 01:08:06;;;;;;;22.85;16.08;;;;;;;-0.86;67.11;101186.91;5051087;28;20063;-60
2023/01/21 01:10:37;;;;;;;33.85;18.40;;;;;;;-0.75;66.67;101190.84;5044507;28;20207;-60
2023/01/21 01:13:04;;;;;;;31.48;17.88;;;;;;;-0.74;67.24;101206.16;5052418;28;20063;-59
2023/01/21 01:15:31;;;;;;;27.02;17.38;;;;;;;-0.76;66.78;101200.09;5038798;28;20410;-59
2023/01/21 01:18:02;;;;;;;28.77;18.38;;;;;;;-0.75;67.76;101201.78;5039429;28;20049;-60
2023/01/21 01:20:32;;;;;;;27.95;18.40;;;;;;;-0.79;67.91;101200.53;5037225;28;20437;-60
2023/01/21 01:22:59;;;;;;;27.65;18.48;;;;;;;-0.81;67.99;101213.59;5050992;28;20381;-60
2023/01/21 01:25:26;;;;;;;29.35;18.42;;;;;;;-0.83;68.35;101210.25;5042239;28;20053;-59
2023/01/21 01:27:55;;;;;;;24.67;17.25;;;;;;;-0.96;67.81;101222.09;5049540;28;20052;-60
2023/01/21 01:30:22;;;;;;;30.13;19.45;;;;;;;-0.97;68.26;101231.34;5044294;28;20053;-60
2023/01/21 01:32:52;;;;;;;27.40;17.80;;;;;;;-0.93;68.66;101232.59;5046459;28;20060;-60
2023/01/21 01:35:25;;;;;;;27.77;18.20;;;;;;;-0.92;68.21;101237.03;5050952;28;20056;-60
2023/01/21 01:37:53;;;;;;;22.00;14.80;;;;;;;-0.87;68.72;101241.81;5046069;28;20050;-59
2023/01/21 01:40:21;;;;;;;24.42;16.27;;;;;;;-0.88;67.73;101243.72;5038028;28;20057;-60
2023/01/21 01:42:48;;;;;;;23.50;15.60;;;;;;;-0.84;67.71;101242.22;5041510;28;20060;-60
2023/01/21 01:45:20;;;;;;;22.50;15.15;;;;;;;-0.87;67.95;101239.91;5038676;28;20558;-59
2023/01/21 01:47:57;;;;;;;27.00;17.35;;;;;;;-1.13;67.60;101260.06;5032739;28;20406;-60
2023/01/21 01:50:27;;;;;;;24.23;15.25;;;;;;;-1.13;68.18;101264.69;5041697;28;20048;-59
2023/01/21 01:52:57;;;;;;;25.08;16.05;;;;;;;-1.03;68.56;101265.03;5051223;28;20136;-59
2023/01/21 01:55:24;;;;;;;23.83;15.48;;;;;;;-1.00;68.52;101275.56;5050393;28;20045;-60
2023/01/21 01:57:54;;;;;;;23.77;15.57;;;;;;;-0.99;67.86;101271.75;5042376;28;20052;-60
2023/01/21 02:00:24;;;;;;;19.38;14.32;;;;;;;-0.94;67.58;101287.53;5041722;28;20501;-59
2023/01/21 02:05:40;;;;;;;24.10;15.98;;;;;;;-1.02;67.58;101285.88;5051464;28;20084;-59
2023/01/21 02:08:09;;;;;;;21.83;14.43;;;;;;;-1.06;67.63;101287.34;5049604;28;20071;-59
2023/01/21 02:10:36;;;;;;;22.58;15.27;;;;;;;-1.11;67.09;101293.47;5040547;28;20064;-59
2023/01/21 02:13:07;;;;;;;26.17;15.50;;;;;;;-1.21;66.87;101292.25;5040950;28;20057;-59
2023/01/21 02:15:41;;;;;;;21.95;13.95;;;;;;;-1.28;67.34;101295.88;5039191;28;20386;-60
2023/01/21 02:18:15;;;;;;;25.98;14.52;;;;;;;-1.40;66.14;101297.59;5032573;28;20045;-60
2023/01/21 02:21:14;;;;;;;26.13;14.63;;;;;;;-1.45;66.60;101308.28;5042820;28;20049;-60
2023/01/21 02:24:02;;;;;;;23.17;14.40;;;;;;;-1.49;66.36;101307.03;5050114;28;20045;-59
2023/01/21 02:27:06;;;;;;;23.33;14.25;;;;;;;-1.57;67.08;101305.41;5048326;28;20053;-59
2023/01/21 02:29:56;;;;;;;23.63;15.55;;;;;;;-1.66;67.29;101310.25;5021682;28;20053;-60
2023/01/21 02:32:52;;;;;;;21.63;14.23;;;;;;;-1.68;67.21;101316.97;5050717;28;20064;-60
2023/01/21 02:35:25;;;;;;;21.48;14.73;;;;;;;-1.66;67.40;101310.25;5050144;28;20044;-60
2023/01/21 02:37:56;;;;;;;23.27;15.30;;;;;;;-1.63;67.31;101315.28;5045381;28;20053;-60
2023/01/21 02:40:30;;;;;;;22.73;14.23;;;;;;;-1.63;67.12;101315.28;5039773;28;20060;-59
2023/01/21 02:43:06;;;;;;;22.88;15.18;;;;;;;-1.61;67.76;101314.25;5039768;28;20132;-60
2023/01/21 02:45:38;;;;;;;23.73;15.02;;;;;;;-1.59;67.52;101325.78;5040781;28;20053;-59
2023/01/21 02:48:13;;;;;;;23.15;15.85;;;;;;;-1.58;66.79;101325.56;5040529;28;20501;-60
2023/01/21 02:50:44;;;;;;;22.17;14.88;;;;;;;-1.62;66.84;101327.03;5050036;28;20055;-60
2023/01/21 02:53:23;;;;;;;22.80;14.48;;;;;;;-1.65;67.62;101336.50;5049144;28;20394;-60
2023/01/21 02:55:50;;;;;;;18.70;13.10;;;;;;;-1.66;66.59;101340.28;5042706;28;20045;-59
2023/01/21 02:58:21;;;;;;;21.02;13.82;;;;;;;-1.70;67.39;101333.56;5044799;28;20052;-59
2023/01/21 03:01:03;;;;;;;19.48;13.00;;;;;;;-1.70;66.60;101336.31;5050838;28;20053;-59
2023/01/21 03:03:54;;;;;;;19.40;12.75;;;;;;;-1.72;66.79;101343.00;5051743;28;20059;-60
2023/01/21 03:06:41;;;;;;;18.58;12.27;;;;;;;-1.78;66.64;101339.25;5046394;28;20057;-59
2023/01/21 03:09:19;;;;;;;20.20;12.18;;;;;;;-1.83;65.81;101339.03;5042293;28;20417;-59
2023/01/21 03:11:59;;;;;;;17.83;12.07;;;;;;;-1.88;65.76;101342.41;5043286;28;20064;-59
2023/01/21 03:17:20;;;;;;;20.75;12.57;;;;;;;-2.10;66.47;101341.78;5046129;28;19921;-59
2023/01/21 03:19:56;;;;;;;18.30;12.68;;;;;;;-2.13;66.25;101344.06;5055034;28;20057;-60
2023/01/21 03:22:28;;;;;;;16.67;11.55;;;;;;;-2.14;66.03;101345.13;5054055;28;20060;-59
2023/01/21 03:24:57;;;;;;;18.70;12.85;;;;;;;-2.13;66.55;101349.53;5049238;28;20049;-60
2023/01/21 03:27:27;;;;;;;19.70;12.65;;;;;;;-2.13;66.29;101347.66;5043038;28;20045;-59
2023/01/21 03:29:59;;;;;;;24.80;15.15;;;;;;;-2.12;67.53;101348.47;5056113;28;20064;-60
2023/01/21 03:32:29;;;;;;;22.00;14.35;;;;;;;-2.06;67.59;101345.78;5044357;28;20061;-60
2023/01/21 03:35:00;;;;;;;21.58;13.60;;;;;;;-2.07;67.42;101344.06;5037593;28;20063;-60
2023/01/21 03:37:32;;;;;;;20.60;13.48;;;;;;;-2.10;66.82;101351.84;5039984;28;20057;-60
2023/01/21 03:40:10;;;;;;;22.55;13.93;;;;;;;-2.07;66.92;101348.72;5044846;28;20053;-59
2023/01/21 03:42:37;;;;;;;24.42;14.98;;;;;;;-2.02;67.34;101353.53;5054008;28;20064;-59
2023/01/21 03:45:08;;;;;;;25.10;15.95;;;;;;;-2.07;67.97;101362.34;5051573;28;20049;-60
2023/01/21 03:47:38;;;;;;;22.33;14.35;;;;;;;-1.97;67.37;101359.22;5054627;28;20384;-60
2023/01/21 03:50:10;;;;;;;26.33;15.73;;;;;;;-1.90;68.28;101363.63;5049758;28;20048;-62
2023/01/21 03:52:41;;;;;;;25.50;14.73;;;;;;;-1.94;68.33;101370.53;5049525;28;20053;-61
2023/01/21 03:55:09;;;;;;;24.38;14.70;;;;;;;-1.90;68.38;101365.50;5051559;28;20048;-60
2023/01/21 03:57:37;;;;;;;26.98;16.25;;;;;;;-1.90;67.72;101358.16;5044200;28;20052;-61
2023/01/21 04:00:06;;;;;;;25.02;15.45;;;;;;;-1.80;68.70;101356.91;5043572;28;20049;-61
2023/01/21 04:02:34;;;;;;;24.50;16.35;;;;;;;-1.91;68.19;101361.09;5051745;28;20048;-61
2023/01/21 04:05:01;;;;;;;25.88;16.55;;;;;;;-1.83;68.89;101360.88;5051496;28;20053;-62
2023/01/21 04:07:30;;;;;;;28.80;17.35;;;;;;;-1.88;68.88;101371.59;5055002;28;20064;-61
2023/01/21 04:09:57;;;;;;;28.35;17.00;;;;;;;-1.95;68.70;101370.75;5044125;28;20049;-61
2023/01/21 04:12:24;;;;;;;27.38;16.70;;;;;;;-1.83;68.16;101374.53;5052942;28;20049;-61
2023/01/21 04:14:52;;;;;;;23.75;16.35;;;;;;;-1.85;68.47;101379.34;5039794;28;20053;-61
2023/01/21 04:17:19;;;;;;;28.60;17.00;;;;;;;-1.79;68.33;101375.78;5042946;28;20061;-61
2023/01/21 04:19:46;;;;;;;23.58;15.27;;;;;;;-1.78;68.80;101388.41;5050528;28;20371;-62
2023/01/21 04:22:13;;;;;;;30.02;17.33;;;;;;;-1.81;68.08;101386.09;5046446;28;20512;-62
2023/01/21 04:24:42;;;;;;;24.42;15.48;;;;;;;-1.76;68.02;101385.47;5052953;28;20060;-61
2023/01/21 04:27:09;;;;;;;27.27;16.58;;;;;;;-1.82;67.61;101389.03;5040061;28;20057;-61
2023/01/21 04:29:37;;;;;;;25.38;16.02;;;;;;;-1.80;67.41;101400.59;5039011;28;20375;-61
2023/01/21 04:32:04;;;;;;;23.48;14.13;;;;;;;-1.79;67.60;101402.25;5035079;28;20056;-61
2023/01/21 04:34:31;;;;;;;23.90;14.70;;;;;;;-1.81;67.82;101405.19;5041740;28;20060;-61
2023/01/21 04:36:59;;;;;;;22.63;15.07;;;;;;;-1.74;67.51;101406.06;5052073;28;20064;-61
2023/01/21 04:39:26;;;;;;;23.75;14.77;;;;;;;-1.75;67.68;101404.38;5038020;28;20051;-61
2023/01/21 04:41:54;;;;;;;21.25;14.25;;;;;;;-1.75;67.35;101398.91;5048960;28;20053;-61
2023/01/21 04:44:21;;;;;;;22.60;14.18;;;;;;;-1.79;66.43;101405.84;5046995;28;20049;-62
2023/01/21 04:46:49;;;;;;;22.15;14.05;;;;;;;-1.77;67.14;101406.47;5045274;28;20429;-59
2023/01/21 04:49:16;;;;;;;25.65;14.95;;;;;;;-1.76;66.75;101413.63;5052054;28;20057;-61
2023/01/21 04:51:43;;;;;;;22.58;14.07;;;;;;;-1.82;65.98;101416.34;5052254;28;20493;-61
2023/01/21 04:54:11;;;;;;;22.85;13.93;;;;;;;-1.87;66.68;101412.34;5049877;28;20053;-61
2023/01/21 04:56:38;;;;;;;23.52;13.43;;;;;;;-2.06;65.97;101408.56;5048097;28;20049;-61
2023/01/21 04:59:07;;;;;;;18.13;12.48;;;;;;;-1.97;66.30;101409.19;5051395;28;20056;-61
2023/01/21 05:01:34;;;;;;;20.88;14.63;;;;;;;-1.97;65.94;101416.56;5047069;28;20063;-61
2023/01/21 05:04:01;;;;;;;20.50;13.85;;;;;;;-2.00;65.75;101422.41;5052762;28;20374;-61
2023/01/21 05:06:28;;;;;;;22.58;14.30;;;;;;;-2.03;66.61;101417.38;5048685;28;20057;-61
2023/01/21 05:08:56;;;;;;;20.50;13.05;;;;;;;-2.09;66.42;101419.88;5047563;28;20049;-60
2023/01/21 05:11:23;;;;;;;23.85;14.55;;;;;;;-2.12;66.06;101424.91;5042692;28;20431;-62
2023/01/21 05:13:50;;;;;;;20.55;13.93;;;;;;;-2.20;66.01;101434.13;5045980;28;20049;-61
2023/01/21 05:16:19;;;;;;;22.45;14.85;;;;;;;-2.21;66.13;101424.25;5033764;28;20064;-61
2023/01/21 05:18:47;;;;;;;25.48;16.05;;;;;;;-2.20;66.01;101428.69;5047061;28;20056;-62
2023/01/21 05:21:14;;;;;;;23.40;14.70;;;;;;;-2.19;66.25;101434.97;5048678;28;20504;-62
2023/01/21 05:23:42;;;;;;;24.13;15.57;;;;;;;-2.23;65.73;101429.06;5040671;28;20053;-61
2023/01/21 05:26:09;;;;;;;22.60;13.55;;;;;;;-2.25;65.61;101433.91;5048979;28;20160;-61
2023/01/21 05:28:36;;;;;;;20.38;13.00;;;;;;;-2.28;66.45;101440.63;5052116;28;20049;-61
2023/01/21 05:31:03;;;;;;;19.23;12.35;;;;;;;-2.33;65.39;101442.25;5048770;28;20079;-61
2023/01/21 05:33:34;;;;;;;20.40;12.90;;;;;;;-2.41;65.83;101443.31;5049189;28;20379;-61
2023/01/21 05:36:02;;;;;;;21.17;13.15;;;;;;;-2.42;66.05;101448.97;5048947;28;20413;-61
2023/01/21 05:38:29;;;;;;;21.30;13.45;;;;;;;-2.40;66.04;101449.59;5046421;28;20057;-60
2023/01/21 05:40:58;;;;;;;23.73;14.75;;;;;;;-2.59;65.73;101451.22;5051358;28;20059;-62
2023/01/21 05:43:26;;;;;;;24.50;15.25;;;;;;;-2.59;66.12;101460.22;5050712;28;20045;-61
2023/01/21 05:45:53;;;;;;;24.77;15.43;;;;;;;-2.55;66.47;101455.22;5049652;28;20049;-61
2023/01/21 05:48:21;;;;;;;21.73;13.70;;;;;;;-2.57;66.37;101460.84;5032958;28;20045;-61
2023/01/21 05:50:50;;;;;;;19.85;13.13;;;;;;;-2.50;65.86;101469.94;5048016;28;20366;-61
2023/01/21 05:53:18;;;;;;;21.13;12.68;;;;;;;-2.48;66.03;101475.16;5049462;28;20056;-61
2023/01/21 05:55:45;;;;;;;21.75;14.20;;;;;;;-2.56;65.41;101468.00;5040117;28;20045;-61
2023/01/21 05:58:12;;;;;;;20.23;12.75;;;;;;;-2.52;65.51;101474.75;5041967;28;20052;-61
2023/01/21 06:00:40;;;;;;;23.30;13.43;;;;;;;-2.58;65.75;101482.88;5042026;28;20049;-61
2023/01/21 06:03:07;;;;;;;21.55;12.77;;;;;;;-2.54;66.51;101492.34;5052973;28;20052;-62
2023/01/21 06:05:35;;;;;;;20.63;13.68;;;;;;;-2.57;65.64;101485.41;5050654;28;20398;-61
2023/01/21 06:08:04;;;;;;;23.83;14.25;;;;;;;-2.60;66.23;101491.28;5052980;28;20053;-61
2023/01/21 06:10:31;;;;;;;22.23;14.05;;;;;;;-2.54;66.79;101501.38;5048768;28;20409;-61
2023/01/21 06:12:58;;;;;;;23.60;15.02;;;;;;;-2.53;66.23;101505.78;5047143;28;20057;-62
2023/01/21 06:15:26;;;;;;;26.77;16.35;;;;;;;-2.56;66.28;101511.66;5048270;28;20052;-61
2023/01/21 06:17:53;;;;;;;25.10;14.52;;;;;;;-2.52;66.39;101514.78;5052076;28;20052;-61
2023/01/21 06:20:21;;;;;;;23.45;14.88;;;;;;;-2.51;66.88;101514.59;5044506;28;20072;-61
2023/01/21 06:22:48;;;;;;;25.67;13.85;;;;;;;-2.47;66.38;101526.78;5043889;28;20475;-61
2023/01/21 06:25:17;;;;;;;23.20;14.85;;;;;;;-2.47;65.64;101526.78;5040792;28;20060;-61
2023/01/21 06:27:44;;;;;;;26.58;14.98;;;;;;;-2.42;66.21;101533.53;5045106;28;20055;-61
2023/01/21 06:30:12;;;;;;;25.23;15.48;;;;;;;-2.30;66.01;101537.38;5045022;28;20505;-61
2023/01/21 06:32:39;;;;;;;25.38;16.15;;;;;;;-2.19;65.54;101536.78;5051449;28;20052;-62
2023/01/21 06:35:07;;;;;;;22.38;14.70;;;;;;;-2.08;65.34;101541.69;5048261;28;20064;-62
2023/01/21 06:37:34;;;;;;;24.92;14.02;;;;;;;-1.96;66.12;101538.34;5040329;28;20053;-61
2023/01/21 06:40:02;;;;;;;24.33;15.38;;;;;;;-1.92;66.01;101539.63;5047444;28;20481;-62
2023/01/21 06:42:30;;;;;;;25.73;15.73;;;;;;;-1.77;65.90;101543.00;5051417;28;20057;-61
2023/01/21 06:44:57;;;;;;;21.15;13.90;;;;;;;-1.59;65.69;101539.69;5051219;28;20116;-61
2023/01/21 06:47:25;;;;;;;20.52;13.23;;;;;;;-1.57;65.45;101553.16;5040158;28;20408;-61
2023/01/21 06:49:52;;;;;;;20.35;13.10;;;;;;;-1.40;65.94;101550.88;5049722;28;20048;-61
2023/01/21 06:52:19;;;;;;;20.27;12.35;;;;;;;-1.26;65.76;101561.59;5041356;28;20080;-62
2023/01/21 06:54:47;;;;;;;21.55;14.35;;;;;;;-1.16;65.93;101565.81;5037064;28;20477;-61
2023/01/21 06:57:14;;;;;;;23.02;13.95;;;;;;;-1.06;65.98;101558.88;5050621;28;20064;-62
2023/01/21 06:59:43;;;;;;;22.52;13.68;;;;;;;-0.95;66.01;101559.28;5045603;28;20052;-61
2023/01/21 07:02:12;;;;;;;19.52;13.52;;;;;;;-0.78;65.68;101565.16;5045260;28;20053;-62
2023/01/21 07:04:40;;;;;;;19.15;12.82;;;;;;;-0.69;66.03;101569.38;5045017;28;20504;-61
2023/01/21 07:07:07;;;;;;;21.67;14.95;;;;;;;-0.70;65.28;101570.41;5043116;28;20072;-62
2023/01/21 07:09:34;;;;;;;23.20;14.40;;;;;;;-0.56;64.94;101572.09;5050145;28;20049;-60
2023/01/21 07:12:02;;;;;;;22.13;14.20;;;;;;;-0.55;65.21;101579.22;5043602;28;20057;-62
2023/01/21 07:14:29;;;;;;;21.65;14.45;;;;;;;-0.41;64.92;101580.88;5047106;28;20049;-62
2023/01/21 07:16:57;;;;;;;21.88;14.98;;;;;;;-0.31;64.94;101576.88;5032138;28;20053;-62
2023/01/21 07:19:25;;;;;;;22.63;14.85;;;;;;;-0.22;64.47;101578.31;5040621;28;20478;-61
2023/01/21 07:21:53;;;;;;;23.85;15.43;;;;;;;-0.14;64.57;101579.97;5049118;28;20063;-61
2023/01/21 07:24:20;;;;;;;23.90;15.18;;;;;;;-0.12;64.79;101577.88;5050717;28;20049;-61
2023/01/21 07:26:47;;;;;;;21.70;14.63;;;;;;;-0.03;64.89;101571.91;5046065;28;20053;-62
2023/01/21 07:29:15;;;;;;;21.35;14.23;;;;;;;-0.08;64.73;101579.94;5047425;28;20401;-61
2023/01/21 07:31:43;;;;;;;24.23;16.08;;;;;;;0.02;64.82;101586.84;5039518;28;20053;-61
2023/01/21 07:34:12;;;;;;;21.98;14.98;;;;;;;0.15;64.78;101590.41;5050045;28;20060;-62
2023/01/21 07:36:39;;;;;;;27.25;16.27;;;;;;;0.20;64.98;101587.00;5051124;28;20056;-61
2023/01/21 07:39:06;;;;;;;26.95;16.40;;;;;;;0.36;65.64;101586.50;5047002;28;20057;-61
2023/01/21 07:41:34;;;;;;;26.85;16.02;;;;;;;0.52;65.34;101589.78;5041419;28;20057;-61
2023/01/21 07:44:01;;;;;;;28.25;16.10;;;;;;;0.54;65.27;101599.44;5036100;28;20059;-61
2023/01/21 07:46:28;;;;;;;22.73;14.68;;;;;;;0.72;64.91;101598.72;5037009;28;20074;-61
2023/01/21 07:48:56;;;;;;;22.25;15.55;;;;;;;0.79;64.19;101598.66;5047376;28;20060;-61
2023/01/21 07:51:25;;;;;;;23.13;15.25;;;;;;;0.74;63.95;101593.84;5047407;28;20501;-61
2023/01/21 07:53:55;;;;;;;29.77;15.50;;;;;;;0.78;63.87;101591.53;5032734;28;20060;-60
2023/01/21 07:56:23;;;;;;;;;;;;;;;0.92;63.37;101595.81;5050097;28;20060;-60
2023/01/21 07:58:51;;;;;;;20.20;14.07;;;;;;;0.98;62.95;101596.84;5052532;28;19935;-61
2023/01/21 08:01:18;;;;;;;25.48;16.25;;;;;;;1.01;62.71;101594.50;5043154;28;20060;-58
2023/01/21 08:03:45;;;;;;;22.38;15.65;;;;;;;0.97;62.79;101606.16;5049606;28;20057;-59
2023/01/21 08:06:14;;;;;;;23.40;15.93;;;;;;;0.95;63.21;101608.28;5040756;28;20501;-60
2023/01/21 08:08:42;;;;;;;26.13;17.17;;;;;;;1.00;63.50;101608.44;5049792;28;20053;-61
2023/01/21 08:11:10;;;;;;;28.38;15.68;;;;;;;1.07;63.23;101613.88;5045156;28;20046;-60
2023/01/21 08:13:37;;;;;;;26.27;15.77;;;;;;;1.14;62.87;101618.25;5048018;28;20501;-61
2023/01/21 08:16:05;;;;;;;24.25;16.15;;;;;;;1.21;63.01;101626.41;5046323;28;20501;-59
2023/01/21 08:18:32;;;;;;;27.00;17.33;;;;;;;1.24;62.88;101626.00;5044690;28;20064;-60
2023/01/21 08:21:00;;;;;;;25.48;17.17;;;;;;;1.32;62.62;101633.09;5047042;28;20056;-60
2023/01/21 08:23:27;;;;;;;24.92;16.75;;;;;;;1.37;62.24;101630.53;5046644;28;20405;-61
2023/01/21 08:26:07;;;;;;;24.23;16.52;;;;;;;1.40;62.09;101632.81;5052666;28;20053;-61
2023/01/21 08:28:35;;;;;;;24.38;15.82;;;;;;;1.44;62.00;101633.19;5050700;28;20496;-62
2023/01/21 08:31:07;;;;;;;25.33;17.15;;;;;;;1.49;61.69;101630.59;5050544;28;20045;-61
2023/01/21 08:33:34;;;;;;;25.88;16.40;;;;;;;1.50;62.02;101635.88;5050657;28;20049;-61
2023/01/21 08:36:02;;;;;;;24.23;16.40;;;;;;;1.55;61.63;101641.53;5043256;28;20068;-61
2023/01/21 08:38:29;;;;;;;24.02;16.35;;;;;;;1.54;61.95;101641.78;5051701;28;20052;-61
2023/01/21 08:40:58;;;;;;;27.00;16.00;;;;;;;1.60;61.72;101647.19;5049023;28;20064;-61
2023/01/21 08:43:26;;;;;;;26.23;17.67;;;;;;;1.60;61.86;101649.94;5051035;28;20068;-60
2023/01/21 08:45:55;;;;;;;24.63;16.88;;;;;;;1.73;62.61;101645.41;5046804;28;20064;-60
2023/01/21 08:48:23;;;;;;;28.38;19.55;;;;;;;1.70;62.01;101648.56;5050073;28;20064;-59
2023/01/21 08:50:50;;;;;;;28.95;19.65;;;;;;;1.75;62.03;101648.75;5051976;28;20065;-59
2023/01/21 08:53:17;;;;;;;26.05;17.40;;;;;;;1.76;62.35;101650.41;5041797;28;20049;-58
2023/01/21 08:55:45;;;;;;;27.17;17.55;;;;;;;1.89;61.86;101657.69;5047294;28;20057;-58
2023/01/21 08:58:13;;;;;;;30.20;19.08;;;;;;;1.90;62.19;101656.63;5051308;28;20049;-59
2023/01/21 09:00:42;;;;;;;27.70;17.58;;;;;;;1.96;62.79;101659.31;5050235;28;20045;-59
2023/01/21 09:03:09;;;;;;;32.33;20.33;;;;;;;2.01;62.25;101664.09;5050133;28;20057;-59
2023/01/21 09:05:36;;;;;;;32.38;20.83;;;;;;;2.07;62.47;101665.13;5053177;28;20421;-59
2023/01/21 09:08:03;;;;;;;28.90;21.02;;;;;;;2.05;63.01;101659.84;5052123;28;20065;-59
2023/01/21 09:13:18;;;;;;;26.50;17.33;;;;;;;2.22;62.65;101665.56;5049350;28;20064;-58
2023/01/21 09:15:46;;;;;;;28.60;20.67;;;;;;;2.21;62.87;101669.41;5040056;28;20397;-58
2023/01/21 09:18:13;;;;;;;29.13;19.00;;;;;;;2.33;62.28;101655.72;5048675;28;20068;-59
2023/01/21 09:20:40;;;;;;;28.63;20.45;;;;;;;2.41;62.32;101664.47;5044400;28;20041;-59
2023/01/21 09:23:22;;;;;;;28.33;20.60;;;;;;;2.49;61.70;101671.59;5049586;28;20052;-58
2023/01/21 09:25:50;;;;;;;30.45;20.75;;;;;;;2.57;62.35;101667.69;5049842;28;20060;-58
2023/01/21 09:28:19;;;;;;;28.00;19.15;;;;;;;2.73;61.90;101668.94;5051136;28;20517;-59
2023/01/21 09:30:47;;;;;;;46.47;31.92;;;;;;;2.81;61.54;101680.50;5036651;28;20053;-59
2023/01/21 09:33:15;;;;;;;26.23;18.95;;;;;;;2.82;62.33;101687.66;5052864;28;20052;-59
2023/01/21 09:35:43;;;;;;;28.80;19.25;;;;;;;2.89;61.67;101683.97;5052617;28;20056;-58
2023/01/21 09:38:11;;;;;;;26.85;18.98;;;;;;;3.01;61.46;101684.84;5052284;28;20053;-58
2023/01/21 09:40:45;;;;;;;29.05;20.65;;;;;;;3.04;60.79;101692.63;5051860;28;20052;-58
2023/01/21 09:43:19;;;;;;;27.73;18.65;;;;;;;3.06;61.78;101690.50;5041197;28;20064;-58
2023/01/21 09:45:49;;;;;;;25.42;17.52;;;;;;;3.16;60.85;101688.00;5041608;28;20431;-58
2023/01/21 09:48:25;;;;;;;25.20;17.17;;;;;;;3.22;60.93;101697.25;5038493;28;20049;-59
2023/01/21 09:50:53;;;;;;;26.40;17.30;;;;;;;3.21;61.53;101693.66;5049851;28;20053;-59
2023/01/21 09:53:29;;;;;;;26.85;18.88;;;;;;;3.13;61.41;101693.13;5049883;28;20057;-59
2023/01/21 09:56:01;;;;;;;27.73;18.23;;;;;;;3.18;61.65;101702.38;5050449;28;20045;-59
2023/01/21 09:58:35;;;;;;;27.80;17.67;;;;;;;3.21;60.88;101706.56;5050992;28;20056;-59
2023/01/21 10:01:11;;;;;;;31.83;20.08;;;;;;;3.31;61.76;101697.75;5046293;28;20064;-59
2023/01/21 10:03:44;;;;;;;27.80;18.33;;;;;;;3.42;61.04;101697.78;5045217;28;20052;-59
2023/01/21 10:06:43;;;;;;;28.55;19.40;;;;;;;3.31;60.54;101706.84;5051020;28;20057;-59
2023/01/21 10:09:28;;;;;;;28.95;20.10;;;;;;;3.44;60.97;101709.41;5040167;28;20053;-59
2023/01/21 10:12:10;;;;;;;27.95;19.20;;;;;;;3.47;61.21;101701.75;5047517;28;20421;-59
2023/01/21 10:15:05;;;;;;;25.05;17.25;;;;;;;3.58;60.43;101707.25;5048985;28;20051;-59
2023/01/21 10:17:50;;;;;;;24.30;17.65;;;;;;;3.63;61.60;101706.53;5043023;28;20421;-59
2023/01/21 10:20:26;;;;;;;24.25;17.15;;;;;;;3.73;60.67;101711.47;5049891;28;20064;-59
2023/01/21 10:22:59;;;;;;;23.63;16.65;;;;;;;3.79;61.63;101714.13;5045867;28;20056;-59
2023/01/21 10:25:30;;;;;;;28.73;18.05;;;;;;;4.17;60.74;101709.19;5050700;28;20366;-59
2023/01/21 10:28:02;;;;;;;24.50;17.58;;;;;;;4.39;60.07;101704.75;5040024;28;20058;-58
2023/01/21 10:30:36;;;;;;;23.75;17.10;;;;;;;4.54;59.90;101706.16;5042205;28;20060;-59
2023/01/21 10:33:07;;;;;;;25.15;17.58;;;;;;;4.73;59.35;101704.88;5048103;28;20056;-59
2023/01/21 10:35:58;;;;;;;25.52;17.35;;;;;;;4.75;59.33;101707.41;5043982;28;20083;-59
2023/01/21 10:38:34;;;;;;;24.23;18.23;;;;;;;4.84;58.78;101705.94;5047573;28;20060;-59
2023/01/21 10:41:10;;;;;;;24.02;17.00;;;;;;;4.99;58.52;101702.63;5045325;28;20406;-60
2023/01/21 10:43:47;;;;;;;27.92;19.20;;;;;;;4.97;58.21;101708.38;5036923;28;20049;-59
2023/01/21 10:46:20;;;;;;;24.50;16.70;;;;;;;4.88;58.73;101704.34;5048483;28;20056;-59
2023/01/21 10:48:57;;;;;;;26.42;18.83;;;;;;;4.96;58.21;101706.72;5045205;28;20059;-59
2023/01/21 10:51:31;;;;;;;26.40;18.45;;;;;;;5.06;57.99;101704.16;5043250;28;20056;-59
2023/01/21 10:54:04;;;;;;;25.30;18.17;;;;;;;5.18;57.73;101712.38;5049672;28;20053;-60
2023/01/21 10:56:42;;;;;;;30.52;20.48;;;;;;;5.21;57.70;101713.81;5049572;28;20053;-60
2023/01/21 10:59:13;;;;;;;25.10;18.95;;;;;;;5.23;58.22;101715.25;5045398;28;20405;-59
2023/01/21 11:01:43;;;;;;;25.73;17.90;;;;;;;5.16;57.40;101714.53;5042489;28;20045;-60
2023/01/21 11:04:15;;;;;;;27.30;19.38;;;;;;;5.26;57.46;101706.44;5047582;28;20111;-60
2023/01/21 11:06:45;;;;;;;26.48;18.77;;;;;;;5.25;57.43;101707.56;5048132;28;20405;-60
2023/01/21 11:09:14;;;;;;;27.42;19.40;;;;;;;5.31;57.58;101707.63;5042384;28;20044;-60
2023/01/21 11:11:45;;;;;;;27.20;19.67;;;;;;;5.34;57.80;101712.69;5048217;28;20056;-61
2023/01/21 11:14:14;;;;;;;28.60;19.25;;;;;;;5.39;57.69;101698.94;5049228;28;20060;-61
2023/01/21 11:16:43;;;;;;;25.75;18.95;;;;;;;5.39;57.75;101701.69;5050139;28;20418;-61
2023/01/21 11:19:16;;;;;;;26.45;18.50;;;;;;;5.38;58.16;101703.63;5040754;28;20050;-61
2023/01/21 11:22:02;;;;;;;27.42;18.77;;;;;;;5.46;57.73;101694.09;5050917;28;20060;-61
2023/01/21 11:24:31;;;;;;;24.92;18.70;;;;;;;5.43;57.90;101689.91;5048104;28;20064;-61
2023/01/21 11:27:00;;;;;;;27.33;18.75;;;;;;;5.41;58.02;101711.41;5047481;28;20056;-61
2023/01/21 11:29:39;;;;;;;30.02;22.20;;;;;;;5.34;58.14;101707.16;5047425;28;20052;-61
2023/01/21 11:32:18;;;;;;;31.27;21.25;;;;;;;5.17;58.50;101705.19;5052940;28;20060;-61
2023/01/21 11:34:48;;;;;;;28.85;20.48;;;;;;;5.26;58.43;101697.34;5044634;28;20061;-62